Time;durP1;ratioP1;P1;durP2;ratioP2;P2;SDS_P1;SDS_P2;PMS_P1;PMS_P2;Temp;Humidity;BMP_temperature;BMP_pressure;BME280_temperature;BME280_humidity;BME280_pressure;Samples;Min_cycle;Max_cycle;Signal;HPM_P1;HPM_P2
2021/04/17 00:00:40;;;;;;;9.95;3.25;;;17.80;70.50;;;;;;5056270;28;20029;-68
2021/04/17 00:03:07;;;;;;;16.08;3.97;;;17.90;70.40;;;;;;5055025;28;20295;-70
2021/04/17 00:05:35;;;;;;;12.85;4.70;;;18.00;70.40;;;;;;5055614;28;20132;-65
2021/04/17 00:08:02;;;;;;;17.20;5.93;;;18.00;70.20;;;;;;5058551;28;20112;-70
2021/04/17 00:10:29;;;;;;;16.38;6.00;;;18.00;70.60;;;;;;5057863;28;20020;-70
2021/04/17 00:12:57;;;;;;;13.65;4.80;;;18.10;70.00;;;;;;5059506;28;20415;-71
2021/04/17 00:15:24;;;;;;;10.55;3.28;;;18.30;69.70;;;;;;5058755;28;20024;-66
2021/04/17 00:17:52;;;;;;;12.23;3.47;;;18.40;69.20;;;;;;5060630;28;20016;-65
2021/04/17 00:20:19;;;;;;;9.27;2.88;;;18.60;69.30;;;;;;5059147;28;20268;-66
2021/04/17 00:22:47;;;;;;;11.07;4.57;;;18.70;68.00;;;;;;5043292;28;20427;-70
2021/04/17 00:25:15;;;;;;;12.73;5.63;;;18.90;68.10;;;;;;5060799;28;20029;-74
2021/04/17 00:27:42;;;;;;;12.35;4.38;;;18.90;67.70;;;;;;5059373;28;20451;-70
2021/04/17 00:30:10;;;;;;;13.77;6.18;;;19.00;67.10;;;;;;5066218;28;20441;-70
2021/04/17 00:32:38;;;;;;;10.43;4.00;;;19.10;67.20;;;;;;5059473;28;20389;-75
2021/04/17 00:35:06;;;;;;;9.95;4.15;;;19.30;66.80;;;;;;5060253;28;20022;-63
2021/04/17 00:37:33;;;;;;;11.25;3.25;;;19.40;65.70;;;;;;5060931;28;20029;-63
2021/04/17 00:40:00;;;;;;;13.18;4.03;;;19.40;66.00;;;;;;5060517;28;20256;-63
2021/04/17 00:42:28;;;;;;;11.60;4.30;;;19.50;64.40;;;;;;5056809;28;20035;-65
2021/04/17 00:44:56;;;;;;;14.43;3.00;;;19.60;64.90;;;;;;5055304;28;20035;-72
2021/04/17 00:47:24;;;;;;;14.88;3.95;;;19.80;65.00;;;;;;5055378;28;20044;-65
2021/04/17 00:49:51;;;;;;;28.42;5.28;;;19.90;64.30;;;;;;5040515;28;20029;-69
2021/04/17 00:52:18;;;;;;;15.35;4.32;;;20.10;63.70;;;;;;5059499;28;20067;-64
2021/04/17 00:54:46;;;;;;;27.25;6.25;;;20.00;62.80;;;;;;5059200;28;20025;-69
2021/04/17 00:57:13;;;;;;;23.65;5.32;;;19.80;63.10;;;;;;5058097;28;20036;-69
2021/04/17 00:59:40;;;;;;;23.15;6.22;;;19.80;64.50;;;;;;5059853;28;20024;-64
2021/04/17 01:02:08;;;;;;;29.75;8.98;;;19.80;63.70;;;;;;5056854;28;20033;-70
2021/04/17 01:04:49;;;;;;;20.10;5.18;;;20.00;64.50;;;;;;5053450;28;20059;-63
2021/04/17 01:07:30;;;;;;;17.08;4.40;;;20.10;63.80;;;;;;5058091;28;20094;-66
2021/04/17 01:10:07;;;;;;;24.95;6.00;;;20.20;61.10;;;;;;5060272;28;20418;-70
2021/04/17 01:12:39;;;;;;;9.43;3.10;;;20.10;62.30;;;;;;5057048;28;20144;-68
2021/04/17 01:15:08;;;;;;;24.13;6.55;;;20.20;61.50;;;;;;5054738;28;20063;-66
2021/04/17 01:17:38;;;;;;;11.18;3.63;;;20.20;61.30;;;;;;5057627;28;20054;-73
2021/04/17 01:20:28;;;;;;;13.98;4.13;;;20.10;61.80;;;;;;5040047;28;20588;-69
2021/04/17 01:23:18;;;;;;;18.23;4.93;;;20.10;62.80;;;;;;5025160;28;20037;-75
2021/04/17 01:26:18;;;;;;;17.73;4.00;;;20.10;62.80;;;;;;5059062;28;20554;-68
2021/04/17 01:28:54;;;;;;;11.68;3.83;;;20.10;62.40;;;;;;5030910;28;20036;-74
2021/04/17 01:31:26;;;;;;;19.23;3.60;;;19.90;63.20;;;;;;5060778;28;20036;-71
2021/04/17 01:33:56;;;;;;;17.17;4.00;;;19.80;62.10;;;;;;5060178;28;20166;-74
2021/04/17 01:36:30;;;;;;;14.63;3.35;;;19.80;62.90;;;;;;5060468;28;20047;-72
2021/04/17 01:39:01;;;;;;;10.52;3.30;;;19.80;61.80;;;;;;5043232;28;20429;-67
2021/04/17 01:41:35;;;;;;;11.25;3.40;;;19.80;62.50;;;;;;5061631;28;20044;-70
2021/04/17 01:44:07;;;;;;;12.00;3.83;;;19.80;63.90;;;;;;5039831;28;20438;-67
2021/04/17 01:46:41;;;;;;;12.55;3.78;;;19.70;63.40;;;;;;5061858;28;20052;-70
2021/04/17 01:49:12;;;;;;;15.95;4.00;;;19.80;63.50;;;;;;5042032;28;20036;-72
2021/04/17 01:51:41;;;;;;;19.25;3.80;;;19.80;61.50;;;;;;5059612;28;20398;-72
2021/04/17 01:54:18;;;;;;;9.27;3.72;;;19.80;61.30;;;;;;5060747;28;20053;-66
2021/04/17 01:56:48;;;;;;;21.67;6.55;;;19.80;61.60;;;;;;5058881;28;20025;-71
2021/04/17 01:59:20;;;;;;;13.10;3.67;;;20.00;63.00;;;;;;5043729;28;20458;-66
2021/04/17 02:01:48;;;;;;;12.35;2.85;;;20.10;61.50;;;;;;5058067;28;20131;-67
2021/04/17 02:04:16;;;;;;;8.48;2.63;;;20.20;61.30;;;;;;5060056;28;20063;-71
2021/04/17 02:06:44;;;;;;;15.70;3.88;;;20.10;63.00;;;;;;5057964;28;20032;-67
2021/04/17 02:09:12;;;;;;;12.98;3.15;;;20.00;60.70;;;;;;5059269;28;20028;-66
2021/04/17 02:11:39;;;;;;;12.38;3.20;;;19.80;61.60;;;;;;5056948;28;20071;-74
2021/04/17 02:14:07;;;;;;;16.88;3.60;;;19.70;62.20;;;;;;5062982;28;20550;-67
2021/04/17 02:16:58;;;;;;;14.25;3.22;;;19.60;62.80;;;;;;5058430;28;20078;-69
2021/04/17 02:19:48;;;;;;;14.40;3.20;;;19.40;63.00;;;;;;5060992;28;20024;-77
2021/04/17 02:22:16;;;;;;;14.93;2.90;;;19.40;64.60;;;;;;5060324;28;20029;-70
2021/04/17 02:24:44;;;;;;;15.20;3.70;;;19.40;63.60;;;;;;5057805;28;20037;-70
2021/04/17 02:27:12;;;;;;;12.50;3.08;;;19.40;62.50;;;;;;5057945;28;20487;-68
2021/04/17 02:29:39;;;;;;;12.68;5.68;;;19.40;62.80;;;;;;5058976;28;20029;-67
2021/04/17 02:32:13;;;;;;;10.80;3.08;;;19.30;63.00;;;;;;5057429;28;20056;-72
2021/04/17 02:34:41;;;;;;;14.02;3.00;;;19.40;64.00;;;;;;5060004;28;20028;-67
2021/04/17 02:37:09;;;;;;;9.75;2.85;;;19.50;69.80;;;;;;5056772;28;20032;-73
2021/04/17 02:39:37;;;;;;;16.55;3.47;;;19.40;65.00;;;;;;5061432;28;20051;-71
2021/04/17 02:42:05;;;;;;;10.73;2.75;;;19.50;63.70;;;;;;5058169;28;20108;-67
2021/04/17 02:44:33;;;;;;;13.35;4.82;;;19.60;65.00;;;;;;5045242;28;20039;-68
2021/04/17 02:47:01;;;;;;;11.65;3.15;;;19.60;64.50;;;;;;5125058;22;20480;-66
2021/04/17 02:49:28;;;;;;;17.67;3.35;;;19.80;63.50;;;;;;5062740;28;20027;-66
2021/04/17 02:51:59;;;;;;;10.23;2.60;;;19.80;63.00;;;;;;5058793;28;20025;-62
2021/04/17 02:54:26;;;;;;;11.40;3.58;;;19.60;62.90;;;;;;5058109;28;20024;-65
2021/04/17 02:56:56;;;;;;;13.65;3.88;;;19.60;63.80;;;;;;5036508;28;20029;-71
2021/04/17 02:59:24;;;;;;;11.00;4.07;;;19.40;63.80;;;;;;5055880;28;20047;-68
2021/04/17 03:01:51;;;;;;;9.95;3.05;;;19.20;65.40;;;;;;5057674;28;21051;-66
2021/04/17 03:04:19;;;;;;;11.95;3.10;;;19.20;65.20;;;;;;5039680;28;20017;-68
2021/04/17 03:06:46;;;;;;;14.55;3.58;;;19.20;65.50;;;;;;5057314;28;20056;-68
2021/04/17 03:09:13;;;;;;;10.88;3.90;;;19.20;65.70;;;;;;5057900;28;20296;-63
2021/04/17 03:11:41;;;;;;;34.42;7.38;;;19.30;65.50;;;;;;5062418;28;20044;-63
2021/04/17 03:14:08;;;;;;;15.55;3.47;;;19.40;65.20;;;;;;5042632;28;20103;-64
2021/04/17 03:16:35;;;;;;;8.13;2.85;;;19.40;64.40;;;;;;5058580;28;20492;-65
2021/04/17 03:19:03;;;;;;;15.57;3.20;;;19.40;64.70;;;;;;5063117;28;20012;-63
2021/04/17 03:21:30;;;;;;;8.98;2.70;;;19.50;65.50;;;;;;5058298;28;20462;-66
2021/04/17 03:23:57;;;;;;;14.32;3.88;;;19.50;64.50;;;;;;5056407;28;20024;-63
2021/04/17 03:26:24;;;;;;;10.23;2.85;;;19.50;64.80;;;;;;5058485;28;20025;-64
2021/04/17 03:28:52;;;;;;;14.00;4.55;;;19.50;63.50;;;;;;5064167;28;20064;-62
2021/04/17 03:31:19;;;;;;;8.43;3.45;;;19.50;63.20;;;;;;5061610;28;20471;-63
2021/04/17 03:33:47;;;;;;;8.98;2.55;;;19.30;63.90;;;;;;5062036;28;20033;-65
2021/04/17 03:36:14;;;;;;;7.45;3.05;;;19.20;64.90;;;;;;5061559;28;20042;-69
2021/04/17 03:38:41;;;;;;;8.75;2.88;;;19.10;64.80;;;;;;5060879;28;20029;-64
2021/04/17 03:41:09;;;;;;;9.00;3.25;;;19.00;65.20;;;;;;5060370;28;20035;-62
2021/04/17 03:43:36;;;;;;;14.25;5.20;;;18.90;65.70;;;;;;5056225;28;20063;-65
2021/04/17 03:46:07;;;;;;;11.60;3.00;;;18.90;64.60;;;;;;5060489;28;20194;-65
2021/04/17 03:48:37;;;;;;;12.55;3.03;;;18.90;65.10;;;;;;5038558;28;20067;-66
2021/04/17 03:51:05;;;;;;;11.00;2.92;;;18.90;65.30;;;;;;5059402;28;20325;-71
2021/04/17 03:53:35;;;;;;;9.07;2.80;;;19.00;64.80;;;;;;5061601;28;20067;-73
2021/04/17 03:56:02;;;;;;;8.77;3.33;;;19.10;65.20;;;;;;5056498;28;20028;-66
2021/04/17 03:58:29;;;;;;;7.25;2.70;;;19.20;63.10;;;;;;5061896;28;20276;-67
2021/04/17 04:01:00;;;;;;;9.90;2.75;;;19.30;64.80;;;;;;5064073;28;20020;-70
2021/04/17 04:03:27;;;;;;;7.47;3.03;;;19.50;64.10;;;;;;4705002;28;9999666;-63
2021/04/17 04:05:54;;;;;;;10.45;2.95;;;19.70;63.80;;;;;;5049195;28;20029;-67
2021/04/17 04:08:22;;;;;;;9.85;2.70;;;19.80;63.40;;;;;;5047304;28;20028;-65
2021/04/17 04:10:49;;;;;;;8.68;2.90;;;19.90;62.10;;;;;;5059404;28;20121;-68
2021/04/17 04:13:16;;;;;;;8.52;2.80;;;19.90;62.10;;;;;;5049056;28;20021;-65
2021/04/17 04:15:44;;;;;;;7.65;2.83;;;20.00;63.00;;;;;;5057064;28;20021;-64
2021/04/17 04:18:14;;;;;;;8.48;2.28;;;20.10;62.20;;;;;;5056376;28;20520;-71
2021/04/17 04:20:44;;;;;;;11.63;3.25;;;20.20;61.10;;;;;;5053998;28;20224;-67
2021/04/17 04:23:11;;;;;;;7.78;2.80;;;20.20;61.10;;;;;;5049237;28;20120;-69
2021/04/17 04:25:38;;;;;;;8.57;3.00;;;20.20;61.00;;;;;;5046630;28;20055;-69
2021/04/17 04:28:06;;;;;;;10.52;3.00;;;20.20;61.00;;;;;;5052748;28;20051;-71
2021/04/17 04:30:33;;;;;;;10.88;2.72;;;20.30;60.50;;;;;;5044100;28;20074;-70
2021/04/17 04:33:04;;;;;;;7.75;2.60;;;20.30;61.30;;;;;;5047785;28;20502;-71
2021/04/17 04:35:31;;;;;;;9.55;3.42;;;20.30;60.90;;;;;;5059337;28;20032;-69
2021/04/17 04:37:58;;;;;;;9.27;2.67;;;20.20;60.80;;;;;;5054435;28;20428;-66
2021/04/17 04:40:26;;;;;;;7.57;2.78;;;20.20;61.70;;;;;;5037076;28;20479;-66
2021/04/17 04:42:53;;;;;;;8.07;2.80;;;20.30;61.90;;;;;;5057841;28;20445;-67
2021/04/17 04:45:20;;;;;;;5.45;2.70;;;20.20;61.70;;;;;;5049331;28;20028;-69
2021/04/17 04:47:48;;;;;;;14.77;4.43;;;20.30;62.30;;;;;;5046082;28;20385;-67
2021/04/17 04:50:18;;;;;;;12.43;4.43;;;20.40;61.10;;;;;;5047896;28;20024;-68
2021/04/17 04:52:49;;;;;;;11.88;4.25;;;20.30;62.10;;;;;;5050568;28;20037;-68
2021/04/17 04:55:19;;;;;;;9.48;3.65;;;20.30;62.70;;;;;;5030990;28;20545;-69
2021/04/17 04:57:52;;;;;;;12.65;4.25;;;20.20;61.40;;;;;;5054982;28;20040;-70
2021/04/17 05:00:20;;;;;;;9.15;5.10;;;20.20;62.80;;;;;;5038665;28;20507;-68
2021/04/17 05:02:50;;;;;;;10.77;3.75;;;20.40;63.10;;;;;;5041402;28;20385;-65
2021/04/17 05:05:19;;;;;;;8.32;4.28;;;20.60;61.50;;;;;;5044105;28;20981;-64
2021/04/17 05:07:46;;;;;;;10.60;3.78;;;20.60;61.00;;;;;;5050272;28;20060;-67
2021/04/17 05:10:13;;;;;;;8.20;2.42;;;20.60;61.00;;;;;;5050607;28;20025;-65
2021/04/17 05:12:41;;;;;;;9.73;2.83;;;20.60;60.40;;;;;;5041689;28;20032;-65
2021/04/17 05:15:09;;;;;;;9.68;2.65;;;20.70;61.20;;;;;;5055901;28;20123;-65
2021/04/17 05:17:36;;;;;;;8.90;3.53;;;20.80;60.30;;;;;;5060173;28;20036;-65
2021/04/17 05:20:05;;;;;;;8.50;4.43;;;20.80;60.00;;;;;;5058131;28;20330;-63
2021/04/17 05:22:32;;;;;;;5.75;3.03;;;20.90;60.40;;;;;;5053586;28;20033;-63
2021/04/17 05:24:59;;;;;;;9.00;3.88;;;20.90;60.00;;;;;;5052701;28;20037;-62
2021/04/17 05:27:27;;;;;;;7.97;4.07;;;20.90;59.00;;;;;;5053161;28;20041;-64
2021/04/17 05:29:54;;;;;;;9.82;6.30;;;20.90;59.80;;;;;;5047705;28;20513;-67
2021/04/17 05:32:24;;;;;;;16.80;10.32;;;20.90;60.00;;;;;;5048120;28;20112;-63
2021/04/17 05:34:54;;;;;;;18.00;11.95;;;20.80;59.10;;;;;;5040038;28;20032;-63
2021/04/17 05:37:24;;;;;;;18.23;11.73;;;20.90;60.40;;;;;;5047771;28;20048;-67
2021/04/17 05:39:52;;;;;;;18.02;11.73;;;20.90;60.30;;;;;;5056674;28;20020;-66
2021/04/17 05:42:19;;;;;;;14.48;12.20;;;21.00;59.40;;;;;;5054812;28;20032;-66
2021/04/17 05:44:46;;;;;;;18.38;13.15;;;21.10;58.50;;;;;;5038663;28;20025;-65
2021/04/17 05:47:13;;;;;;;17.63;12.45;;;21.00;58.00;;;;;;5056835;28;20075;-63
2021/04/17 05:49:41;;;;;;;14.05;10.18;;;21.20;57.60;;;;;;5054724;28;20515;-65
2021/04/17 05:52:08;;;;;;;15.68;9.32;;;21.50;57.10;;;;;;5053047;28;20111;-65
2021/04/17 05:54:36;;;;;;;24.63;12.93;;;21.90;55.30;;;;;;5054014;28;20024;-65
2021/04/17 05:57:04;;;;;;;18.00;15.27;;;21.90;55.80;;;;;;5053437;28;20108;-62
2021/04/17 05:59:34;;;;;;;18.08;12.32;;;22.00;55.80;;;;;;5048777;28;20021;-67
2021/04/17 06:02:06;;;;;;;18.63;10.25;;;22.10;55.90;;;;;;5051997;28;20033;-60
2021/04/17 06:04:33;;;;;;;;;;;22.20;55.30;;;;;;5046113;28;20044;-63
2021/04/17 06:07:00;;;;;;;15.13;7.28;;;22.70;54.20;;;;;;5056978;28;20369;-63
2021/04/17 06:09:30;;;;;;;17.48;11.48;;;23.10;53.40;;;;;;5056642;28;20342;-65
2021/04/17 06:12:01;;;;;;;13.55;8.23;;;23.50;52.00;;;;;;5057152;28;20120;-66
2021/04/17 06:14:31;;;;;;;14.75;7.13;;;23.60;52.50;;;;;;5029357;28;20406;-65
2021/04/17 06:16:58;;;;;;;13.35;8.32;;;23.60;51.90;;;;;;5051846;28;20616;-63
2021/04/17 06:19:28;;;;;;;12.20;6.35;;;23.90;51.80;;;;;;5053217;28;20021;-66
2021/04/17 06:21:55;;;;;;;8.80;5.72;;;24.00;51.40;;;;;;5046032;28;20067;-64
2021/04/17 06:24:22;;;;;;;10.40;4.13;;;23.60;52.00;;;;;;5048488;28;20029;-64
2021/04/17 06:26:50;;;;;;;11.18;3.80;;;23.40;51.70;;;;;;5045980;28;20033;-64
2021/04/17 06:29:17;;;;;;;10.38;4.63;;;23.20;52.60;;;;;;5056775;28;20036;-63
2021/04/17 06:31:44;;;;;;;13.02;5.00;;;22.70;53.60;;;;;;5055142;28;20068;-66
2021/04/17 06:34:12;;;;;;;7.95;3.70;;;22.10;55.00;;;;;;5034160;28;20093;-65
2021/04/17 06:36:39;;;;;;;10.00;4.32;;;21.50;56.70;;;;;;5049257;28;20032;-61
2021/04/17 06:39:07;;;;;;;9.27;3.72;;;21.10;57.80;;;;;;5048043;28;20044;-67
2021/04/17 06:41:36;;;;;;;7.88;3.53;;;21.20;58.10;;;;;;5048336;28;20363;-63
2021/04/17 06:44:07;;;;;;;6.40;3.50;;;21.50;56.70;;;;;;5049979;28;20026;-66
2021/04/17 06:46:39;;;;;;;8.68;4.63;;;21.20;57.90;;;;;;5053679;28;20059;-65
2021/04/17 06:49:08;;;;;;;9.02;4.28;;;20.90;58.70;;;;;;5051315;28;20020;-63
2021/04/17 06:51:42;;;;;;;15.48;8.18;;;20.80;59.30;;;;;;5043963;28;20040;-64
2021/04/17 06:54:14;;;;;;;9.98;3.65;;;20.70;58.70;;;;;;5036839;28;20031;-65
2021/04/17 06:56:44;;;;;;;;;;;20.50;59.50;;;;;;5054718;28;20252;-62
2021/04/17 06:59:12;;;;;;;6.38;3.50;;;20.30;59.60;;;;;;5046918;28;20154;-63
2021/04/17 07:01:40;;;;;;;7.03;2.85;;;19.80;61.30;;;;;;5042230;28;20040;-66
2021/04/17 07:04:13;;;;;;;7.53;3.58;;;19.50;62.10;;;;;;5050495;28;20036;-60
2021/04/17 07:06:40;;;;;;;9.57;4.07;;;19.30;62.90;;;;;;5032964;28;20139;-65
2021/04/17 07:09:09;;;;;;;11.90;3.35;;;19.10;65.00;;;;;;5059303;28;20035;-61
2021/04/17 07:11:37;;;;;;;5.55;2.45;;;19.00;63.90;;;;;;5051626;28;20063;-63
2021/04/17 07:14:06;;;;;;;6.88;2.45;;;18.90;64.20;;;;;;5049349;28;20089;-63
2021/04/17 07:16:53;;;;;;;6.13;2.70;;;18.60;64.80;;;;;;5056899;28;20033;-69
2021/04/17 07:19:21;;;;;;;7.00;2.33;;;18.40;65.40;;;;;;5057266;28;20031;-63
2021/04/17 07:21:49;;;;;;;7.95;2.40;;;18.30;65.90;;;;;;5050637;28;20032;-68
2021/04/17 07:24:27;;;;;;;7.47;2.65;;;18.20;66.10;;;;;;5053535;28;20021;-67
2021/04/17 07:26:54;;;;;;;6.60;1.77;;;18.00;67.10;;;;;;5057456;28;20028;-67
2021/04/17 07:29:22;;;;;;;7.00;2.30;;;17.80;66.90;;;;;;5050821;28;20036;-62
2021/04/17 07:31:54;;;;;;;7.38;2.10;;;17.70;68.50;;;;;;5052909;28;20076;-68
2021/04/17 07:34:24;;;;;;;7.03;2.17;;;17.60;69.00;;;;;;5051486;28;20017;-62
2021/04/17 07:36:57;;;;;;;6.88;2.65;;;17.40;69.70;;;;;;5053657;28;20388;-62
2021/04/17 07:39:35;;;;;;;7.80;2.70;;;17.30;70.40;;;;;;5050667;28;20049;-66
2021/04/17 07:42:08;;;;;;;8.57;2.20;;;17.20;71.50;;;;;;5043618;28;20049;-68
2021/04/17 07:44:48;;;;;;;6.25;2.58;;;17.10;70.90;;;;;;5051822;28;20103;-68
2021/04/17 07:47:35;;;;;;;12.77;3.13;;;17.00;71.60;;;;;;5028761;28;20469;-64
2021/04/17 07:50:11;;;;;;;5.47;2.50;;;16.80;72.40;;;;;;5022741;28;20017;-67
2021/04/17 07:52:38;;;;;;;5.35;2.83;;;16.80;72.30;;;;;;5032008;28;20526;-68
2021/04/17 07:55:11;;;;;;;7.93;2.90;;;16.70;72.60;;;;;;5028844;28;20021;-63
2021/04/17 07:57:44;;;;;;;6.35;2.42;;;16.70;73.00;;;;;;5028322;28;20434;-64
2021/04/17 08:00:20;;;;;;;7.22;2.95;;;16.70;73.40;;;;;;5033527;28;20535;-66
2021/04/17 08:02:51;;;;;;;7.50;2.85;;;16.70;73.10;;;;;;5029051;28;20045;-63
2021/04/17 08:05:19;;;;;;;9.02;2.78;;;16.70;73.10;;;;;;5030446;28;20509;-62
2021/04/17 08:07:51;;;;;;;6.07;2.83;;;16.70;73.20;;;;;;5027399;28;20079;-67
2021/04/17 08:10:21;;;;;;;7.30;3.42;;;16.70;73.30;;;;;;5025622;28;20021;-67
2021/04/17 08:12:51;;;;;;;6.75;3.13;;;16.70;74.00;;;;;;5034921;28;20036;-65
2021/04/17 08:15:22;;;;;;;7.47;2.83;;;16.70;74.40;;;;;;5027401;28;20025;-69
2021/04/17 08:17:53;;;;;;;8.25;3.22;;;16.60;74.50;;;;;;5036073;28;20021;-67
2021/04/17 08:20:21;;;;;;;8.07;2.75;;;16.50;75.10;;;;;;5028289;28;20026;-64
2021/04/17 08:22:51;;;;;;;5.18;2.38;;;16.50;75.20;;;;;;5030803;28;20063;-67
2021/04/17 08:25:24;;;;;;;4.80;2.22;;;16.40;75.50;;;;;;5038732;28;20051;-63
2021/04/17 08:27:54;;;;;;;5.03;2.35;;;16.40;76.00;;;;;;5031923;28;20499;-63
2021/04/17 08:30:27;;;;;;;9.88;2.88;;;16.30;76.60;;;;;;5024660;28;20095;-67
2021/04/17 08:33:14;;;;;;;8.30;2.53;;;16.10;77.10;;;;;;5029314;28;20112;-64
2021/04/17 08:35:42;;;;;;;8.65;2.80;;;16.00;77.60;;;;;;5032937;28;20488;-69
2021/04/17 08:38:12;;;;;;;8.68;2.40;;;15.90;78.40;;;;;;5036572;28;20550;-67
2021/04/17 08:40:41;;;;;;;6.30;3.05;;;15.80;78.70;;;;;;5035084;28;20502;-67
2021/04/17 08:43:15;;;;;;;7.22;2.78;;;15.70;78.90;;;;;;5027955;28;20138;-63
2021/04/17 08:46:18;;;;;;;11.55;3.03;;;15.60;79.30;;;;;;5037998;28;20029;-68
2021/04/17 08:49:01;;;;;;;8.40;3.00;;;15.50;79.70;;;;;;4944856;28;20030;-64
2021/04/17 08:51:31;;;;;;;7.85;3.45;;;15.50;81.30;;;;;;5039752;28;20041;-68
2021/04/17 08:53:59;;;;;;;11.95;3.72;;;15.40;80.90;;;;;;5057507;28;20585;-71
2021/04/17 08:56:59;;;;;;;11.80;3.25;;;15.40;81.20;;;;;;5057055;28;20013;-64
2021/04/17 08:59:36;;;;;;;10.13;3.28;;;15.30;81.10;;;;;;5030382;28;20500;-69
2021/04/17 09:02:12;;;;;;;6.22;2.75;;;15.30;81.00;;;;;;5045674;28;20067;-67
2021/04/17 09:05:05;;;;;;;7.97;3.92;;;15.20;81.30;;;;;;5055858;28;20083;-70
2021/04/17 09:07:33;;;;;;;9.75;3.30;;;15.10;81.80;;;;;;5052956;28;20088;-66
2021/04/17 09:10:31;;;;;;;7.22;3.75;;;15.00;82.00;;;;;;5041831;28;20040;-67
2021/04/17 09:13:31;;;;;;;13.10;3.80;;;14.80;82.60;;;;;;5038541;28;20025;-63
2021/04/17 09:16:01;;;;;;;6.88;3.22;;;14.70;83.50;;;;;;5042913;28;20263;-64
2021/04/17 09:18:35;;;;;;;8.90;3.72;;;14.60;83.70;;;;;;5050815;28;20017;-70
2021/04/17 09:21:22;;;;;;;8.35;3.50;;;14.50;84.40;;;;;;5050390;28;20443;-69
2021/04/17 09:23:53;;;;;;;7.95;3.55;;;14.40;84.80;;;;;;5051857;28;20368;-62
2021/04/17 09:26:35;;;;;;;6.40;3.60;;;14.40;85.20;;;;;;5043583;28;20060;-64
2021/04/17 09:29:23;;;;;;;7.93;3.30;;;14.40;85.40;;;;;;5049188;28;20021;-67
2021/04/17 09:31:52;;;;;;;8.20;3.75;;;14.30;85.30;;;;;;5027674;28;20132;-63
2021/04/17 09:34:20;;;;;;;6.25;3.95;;;14.30;85.20;;;;;;5043247;28;20025;-66
2021/04/17 09:36:50;;;;;;;10.68;4.88;;;14.20;85.50;;;;;;5043473;28;20033;-64
2021/04/17 09:39:31;;;;;;;8.57;4.57;;;14.30;85.70;;;;;;5043016;28;20013;-63
2021/04/17 09:42:04;;;;;;;8.15;4.43;;;14.20;86.00;;;;;;5036827;28;20033;-64
2021/04/17 09:44:44;;;;;;;;;;;14.10;86.20;;;;;;5037934;28;20171;-69
2021/04/17 09:47:14;;;;;;;8.00;4.00;;;14.00;86.30;;;;;;5041888;28;19920;-64
2021/04/17 09:49:48;;;;;;;8.73;4.10;;;14.00;86.70;;;;;;5042372;28;20025;-62
2021/04/17 09:52:20;;;;;;;10.93;3.88;;;13.90;87.20;;;;;;5042101;28;20082;-65
2021/04/17 09:55:07;;;;;;;8.30;3.80;;;13.80;87.60;;;;;;5022786;28;20025;-64
2021/04/17 09:57:44;;;;;;;9.75;4.32;;;13.80;87.90;;;;;;5034651;28;20112;-70
2021/04/17 10:00:12;;;;;;;8.32;5.03;;;13.70;88.10;;;;;;5036165;28;20526;-64
2021/04/17 10:02:47;;;;;;;10.13;5.43;;;13.60;87.80;;;;;;5042841;28;20037;-68
2021/04/17 10:05:16;;;;;;;11.73;4.70;;;13.60;88.40;;;;;;5043232;28;20031;-65
2021/04/17 10:07:50;;;;;;;9.77;4.50;;;13.50;89.40;;;;;;5032279;28;20035;-63
2021/04/17 10:10:18;;;;;;;8.68;4.40;;;13.50;89.60;;;;;;5041595;28;20044;-68
2021/04/17 10:12:50;;;;;;;8.20;5.15;;;13.60;89.60;;;;;;5042671;28;20029;-68
2021/04/17 10:15:23;;;;;;;12.27;4.90;;;13.50;89.70;;;;;;5045873;28;20021;-63
2021/04/17 10:17:53;;;;;;;12.27;5.57;;;13.50;89.80;;;;;;5044044;28;20307;-69
2021/04/17 10:20:21;;;;;;;6.38;4.85;;;13.50;89.90;;;;;;5045344;28;20410;-62
2021/04/17 10:23:01;;;;;;;10.50;5.18;;;13.40;89.90;;;;;;5044970;28;20050;-65
2021/04/17 10:25:40;;;;;;;8.40;4.75;;;13.40;90.00;;;;;;5036413;28;20025;-67
2021/04/17 10:28:22;;;;;;;11.45;5.20;;;13.40;90.20;;;;;;5041247;28;20041;-65
2021/04/17 10:30:57;;;;;;;11.52;5.30;;;13.40;90.30;;;;;;5041326;28;20838;-65
2021/04/17 10:33:30;;;;;;;10.65;5.97;;;13.30;90.40;;;;;;5040509;28;20474;-65
2021/04/17 10:35:59;;;;;;;59.75;20.65;;;13.40;90.30;;;;;;5027204;28;20024;-70
2021/04/17 10:38:30;;;;;;;36.72;13.55;;;13.40;90.30;;;;;;5040372;28;20432;-70
2021/04/17 10:40:59;;;;;;;23.48;8.57;;;13.30;90.30;;;;;;5045233;28;20063;-67
2021/04/17 10:43:27;;;;;;;16.50;5.93;;;13.30;90.30;;;;;;5045407;28;20169;-63
2021/04/17 10:46:01;;;;;;;24.33;9.35;;;13.20;90.40;;;;;;5044139;28;20041;-64
2021/04/17 10:48:39;;;;;;;9.73;6.32;;;13.10;90.70;;;;;;5038569;28;20029;-63
2021/04/17 10:51:14;;;;;;;12.60;6.80;;;13.10;90.90;;;;;;5040472;28;20124;-64
2021/04/17 10:53:49;;;;;;;12.32;6.15;;;13.00;90.70;;;;;;5010691;28;20149;-67
2021/04/17 10:56:19;;;;;;;12.88;7.25;;;13.00;90.80;;;;;;5045746;28;20029;-65
2021/04/17 10:58:55;;;;;;;12.90;7.30;;;13.00;90.90;;;;;;5038502;28;20083;-68
2021/04/17 11:01:27;;;;;;;13.50;6.90;;;12.90;90.90;;;;;;5047012;28;20421;-71
2021/04/17 11:03:58;;;;;;;10.93;6.35;;;12.90;91.20;;;;;;5046849;28;20352;-67
2021/04/17 11:06:35;;;;;;;12.95;7.05;;;12.90;91.30;;;;;;5046558;28;20036;-73
2021/04/17 11:09:17;;;;;;;12.20;7.15;;;12.80;91.20;;;;;;5040103;28;20048;-67
2021/04/17 11:11:54;;;;;;;10.27;6.18;;;12.80;91.30;;;;;;5033816;28;20472;-69
2021/04/17 11:14:24;;;;;;;14.25;6.70;;;12.70;91.40;;;;;;5050531;28;20075;-66
2021/04/17 11:16:53;;;;;;;14.00;7.50;;;12.70;91.20;;;;;;5045876;28;20106;-68
2021/04/17 11:19:37;;;;;;;11.93;7.65;;;12.70;91.60;;;;;;5045330;28;20009;-70
2021/04/17 11:22:10;;;;;;;15.65;7.78;;;12.70;91.60;;;;;;5045560;28;20060;-69
2021/04/17 11:24:39;;;;;;;13.82;7.70;;;12.60;91.70;;;;;;5044594;28;20032;-66
2021/04/17 11:27:07;;;;;;;12.85;7.72;;;12.60;91.90;;;;;;5047308;28;20028;-60
2021/04/17 11:29:35;;;;;;;12.43;6.90;;;12.50;92.20;;;;;;5050991;28;20103;-62
2021/04/17 11:32:03;;;;;;;17.83;8.43;;;12.40;92.40;;;;;;5035104;28;20040;-65
2021/04/17 11:34:30;;;;;;;16.42;8.65;;;12.40;92.40;;;;;;5041829;28;20029;-66
2021/04/17 11:36:58;;;;;;;14.32;7.85;;;12.40;92.60;;;;;;5047878;28;20253;-60
2021/04/17 11:39:25;;;;;;;13.93;8.27;;;12.40;92.20;;;;;;5040664;28;20025;-61
2021/04/17 11:41:55;;;;;;;19.30;12.73;;;12.40;92.30;;;;;;5048399;28;20025;-64
2021/04/17 11:44:25;;;;;;;14.00;9.73;;;12.40;92.50;;;;;;5049811;28;20033;-68
2021/04/17 11:46:58;;;;;;;19.55;12.98;;;12.40;92.40;;;;;;5050783;28;20045;-60
2021/04/17 11:49:26;;;;;;;19.83;11.05;;;12.30;92.10;;;;;;5048040;28;20025;-61
2021/04/17 11:51:53;;;;;;;15.57;9.57;;;12.20;92.30;;;;;;5048411;28;20028;-70
2021/04/17 11:54:20;;;;;;;27.35;19.40;;;12.20;92.30;;;;;;5046054;28;20020;-63
2021/04/17 11:56:48;;;;;;;18.60;11.05;;;12.10;92.40;;;;;;5047370;28;20032;-65
2021/04/17 11:59:15;;;;;;;14.73;10.70;;;12.10;92.60;;;;;;5045147;28;20025;-64
2021/04/17 12:01:43;;;;;;;20.75;12.27;;;12.10;92.90;;;;;;5046744;28;20025;-61
2021/04/17 12:04:10;;;;;;;17.95;11.38;;;12.10;93.00;;;;;;5042792;28;20427;-61
2021/04/17 12:06:37;;;;;;;16.65;11.73;;;12.10;93.00;;;;;;5050313;28;20118;-62
2021/04/17 12:09:05;;;;;;;18.60;11.50;;;12.00;93.20;;;;;;5049976;28;20036;-63
2021/04/17 12:11:32;;;;;;;18.88;14.10;;;12.10;93.10;;;;;;5046114;28;20043;-63
2021/04/17 12:13:59;;;;;;;19.58;11.05;;;12.10;93.00;;;;;;5049812;28;20063;-61
2021/04/17 12:16:30;;;;;;;20.02;10.27;;;12.00;93.00;;;;;;5048601;28;20024;-60
2021/04/17 12:19:00;;;;;;;18.67;10.35;;;12.00;93.10;;;;;;5048503;28;20044;-62
2021/04/17 12:21:28;;;;;;;19.90;11.20;;;11.90;93.20;;;;;;5047183;28;20025;-61
2021/04/17 12:23:55;;;;;;;17.30;11.20;;;11.90;93.10;;;;;;5048315;28;20025;-62
2021/04/17 12:26:22;;;;;;;17.05;10.90;;;12.00;93.10;;;;;;5050017;28;20025;-63
2021/04/17 12:28:49;;;;;;;15.38;9.85;;;12.10;93.20;;;;;;5051018;28;20025;-61
2021/04/17 12:31:17;;;;;;;19.50;10.70;;;12.00;93.20;;;;;;5048378;28;20032;-62
2021/04/17 12:33:44;;;;;;;15.60;11.02;;;12.00;93.10;;;;;;5046532;28;20066;-61
2021/04/17 12:36:11;;;;;;;19.45;11.75;;;11.80;93.30;;;;;;5047223;28;20044;-71
2021/04/17 12:38:39;;;;;;;19.48;12.15;;;11.70;93.40;;;;;;5051456;28;20044;-71
2021/04/17 12:41:06;;;;;;;14.40;10.15;;;11.70;93.40;;;;;;5049681;28;20021;-71
2021/04/17 12:43:36;;;;;;;14.73;10.35;;;11.60;93.60;;;;;;5050675;28;20522;-70
2021/04/17 12:46:04;;;;;;;18.38;10.15;;;11.60;93.60;;;;;;5049770;28;20053;-70
2021/04/17 12:48:34;;;;;;;19.50;10.75;;;11.50;93.80;;;;;;5047833;28;20017;-71
2021/04/17 12:51:04;;;;;;;17.23;10.77;;;11.50;93.60;;;;;;5032885;28;20017;-71
2021/04/17 12:53:34;;;;;;;24.48;12.63;;;11.50;93.70;;;;;;5047490;28;20017;-70
2021/04/17 12:56:01;;;;;;;24.60;15.35;;;11.50;93.80;;;;;;5048046;28;20477;-62
2021/04/17 12:58:29;;;;;;;37.60;26.73;;;11.60;93.90;;;;;;5048311;28;20020;-71